Time;durP1;ratioP1;P1;durP2;ratioP2;P2;SDS_P1;SDS_P2;PMS_P1;PMS_P2;Temp;Humidity;BMP_temperature;BMP_pressure;BME280_temperature;BME280_humidity;BME280_pressure;Samples;Min_cycle;Max_cycle;Signal;HPM_P1;HPM_P2
2022/09/26 00:01:13;;;;;;;4.75;2.00;;;11.40;99.90;;;;;;5054995;28;20036;-78
2022/09/26 00:03:45;;;;;;;6.38;1.90;;;11.40;99.90;;;;;;5072791;28;20073;-77
2022/09/26 00:06:12;;;;;;;5.18;2.38;;;11.40;99.90;;;;;;5038236;28;20041;-81
2022/09/26 00:08:38;;;;;;;5.57;2.28;;;11.40;99.90;;;;;;5072603;28;20036;-78
2022/09/26 00:11:07;;;;;;;4.75;1.90;;;11.40;99.90;;;;;;5054957;28;20043;-80
2022/09/26 00:13:35;;;;;;;3.90;2.00;;;11.40;99.90;;;;;;5072408;28;20501;-80
2022/09/26 00:16:01;;;;;;;6.72;2.50;;;11.40;99.90;;;;;;5054850;28;20396;-79
2022/09/26 00:18:27;;;;;;;7.65;2.40;;;11.40;99.90;;;;;;5072370;28;20036;-80
2022/09/26 00:21:00;;;;;;;6.22;2.10;;;11.40;99.90;;;;;;5072376;28;20032;-79
2022/09/26 00:23:26;;;;;;;4.60;2.40;;;11.40;99.90;;;;;;5072591;28;20044;-79
2022/09/26 00:25:52;;;;;;;5.25;2.30;;;11.40;99.90;;;;;;5072542;28;20473;-78
2022/09/26 00:28:19;;;;;;;4.40;2.20;;;11.40;99.90;;;;;;5054567;28;20054;-80
2022/09/26 00:30:45;;;;;;;4.18;2.65;;;11.40;99.90;;;;;;5069875;28;20049;-80
2022/09/26 00:33:11;;;;;;;6.30;2.60;;;11.40;99.90;;;;;;5053537;28;20127;-88
2022/09/26 00:35:38;;;;;;;8.73;2.50;;;11.40;99.90;;;;;;5054527;28;20086;-83
2022/09/26 00:38:05;;;;;;;6.20;2.72;;;11.40;99.90;;;;;;5054513;28;20044;-82
2022/09/26 00:40:32;;;;;;;4.35;2.65;;;11.40;99.90;;;;;;5054166;28;20480;-82
2022/09/26 00:42:58;;;;;;;5.53;1.85;;;11.40;99.90;;;;;;5054329;28;20032;-79
2022/09/26 00:45:29;;;;;;;5.13;2.40;;;11.40;99.90;;;;;;5054172;28;20492;-82
2022/09/26 00:48:01;;;;;;;6.55;2.35;;;11.40;99.90;;;;;;5054120;28;20102;-77
2022/09/26 00:50:36;;;;;;;6.93;2.60;;;11.40;99.90;;;;;;5072047;28;20037;-79
2022/09/26 00:53:32;;;;;;;5.57;2.67;;;11.40;99.90;;;;;;5071922;28;20116;-76
2022/09/26 00:56:05;;;;;;;10.95;2.65;;;11.30;99.90;;;;;;5052430;28;20051;-79
2022/09/26 00:58:44;;;;;;;6.22;2.40;;;11.40;99.90;;;;;;5071285;28;20044;-81
2022/09/26 01:01:12;;;;;;;3.83;1.95;;;11.40;99.90;;;;;;5054034;28;20047;-79
2022/09/26 01:03:40;;;;;;;6.72;2.25;;;11.40;99.90;;;;;;5071790;28;20074;-77
2022/09/26 01:06:06;;;;;;;7.15;2.28;;;11.30;99.90;;;;;;5070450;28;20101;-79
2022/09/26 01:08:37;;;;;;;5.45;2.15;;;11.40;99.90;;;;;;5037438;28;20036;-79
2022/09/26 01:11:03;;;;;;;6.03;2.03;;;11.40;99.90;;;;;;5053843;28;20048;-82
2022/09/26 01:13:33;;;;;;;4.03;2.20;;;11.40;99.90;;;;;;5036987;28;20065;-79
2022/09/26 01:15:59;;;;;;;4.45;2.28;;;11.40;99.90;;;;;;5071803;28;20075;-79
2022/09/26 01:18:25;;;;;;;6.53;2.22;;;11.40;99.90;;;;;;5053480;28;20044;-81
2022/09/26 01:20:56;;;;;;;8.00;2.53;;;11.40;99.90;;;;;;5037136;28;20033;-81
2022/09/26 01:23:49;;;;;;;3.97;2.00;;;11.30;99.90;;;;;;5053826;28;20040;-79
2022/09/26 01:26:55;;;;;;;4.57;2.60;;;11.40;99.90;;;;;;5053622;28;20066;-79
2022/09/26 01:29:48;;;;;;;5.28;2.55;;;11.40;99.90;;;;;;5069520;28;20266;-80
2022/09/26 01:32:47;;;;;;;6.50;2.70;;;11.30;99.90;;;;;;5073228;28;20036;-81
2022/09/26 01:35:23;;;;;;;10.77;2.58;;;11.40;99.90;;;;;;5073003;28;20068;-79
2022/09/26 01:38:12;;;;;;;5.07;2.38;;;11.40;99.90;;;;;;5038836;28;20579;-78
2022/09/26 01:40:42;;;;;;;8.13;2.30;;;11.40;99.90;;;;;;5073056;28;20041;-79
2022/09/26 01:43:14;;;;;;;9.70;2.50;;;11.40;99.90;;;;;;5073050;28;20041;-79
2022/09/26 01:46:18;;;;;;;8.55;2.78;;;11.40;99.90;;;;;;5058681;28;20056;-78
2022/09/26 01:48:49;;;;;;;12.68;3.72;;;11.40;99.90;;;;;;5059150;28;20044;-80
2022/09/26 01:51:41;;;;;;;6.93;2.72;;;11.50;99.90;;;;;;5059201;28;20086;-79
2022/09/26 01:54:16;;;;;;;10.30;2.55;;;11.50;99.90;;;;;;5059120;28;20365;-80
2022/09/26 01:56:44;;;;;;;5.95;2.17;;;11.50;99.90;;;;;;5042293;28;20098;-79
2022/09/26 01:59:21;;;;;;;8.63;2.30;;;11.50;99.90;;;;;;5056891;28;20112;-78
2022/09/26 02:01:52;;;;;;;4.90;2.05;;;11.50;99.90;;;;;;5042069;28;20041;-78
2022/09/26 02:04:24;;;;;;;3.58;2.03;;;11.60;99.90;;;;;;5058589;28;20415;-78
2022/09/26 02:07:03;;;;;;;7.75;2.90;;;11.50;99.90;;;;;;5058723;28;20123;-80
2022/09/26 02:09:48;;;;;;;6.57;2.55;;;11.50;99.90;;;;;;5076228;28;20566;-79
2022/09/26 02:12:22;;;;;;;4.03;2.72;;;11.50;99.90;;;;;;5058146;28;20496;-79
2022/09/26 02:14:51;;;;;;;7.38;2.38;;;11.40;99.90;;;;;;5058393;28;20124;-79
2022/09/26 02:17:25;;;;;;;5.63;3.35;;;11.50;99.90;;;;;;5058380;28;20040;-78
2022/09/26 02:20:02;;;;;;;7.50;2.80;;;11.50;99.90;;;;;;5076422;28;20083;-78
2022/09/26 02:22:31;;;;;;;8.35;4.25;;;11.40;99.90;;;;;;5041589;28;20127;-76
2022/09/26 02:24:57;;;;;;;5.82;2.67;;;11.40;99.90;;;;;;5058665;28;20036;-77
2022/09/26 02:27:25;;;;;;;7.63;3.35;;;11.40;99.90;;;;;;5058076;28;20048;-77
2022/09/26 02:29:51;;;;;;;6.80;3.92;;;11.40;99.90;;;;;;5039467;28;20497;-76
2022/09/26 02:32:20;;;;;;;9.73;3.55;;;11.30;99.90;;;;;;5075750;28;20033;-76
2022/09/26 02:34:48;;;;;;;2.83;2.30;;;11.30;99.90;;;;;;5074614;28;20435;-76
2022/09/26 02:37:19;;;;;;;7.50;3.80;;;11.40;99.90;;;;;;5057864;28;20073;-74
2022/09/26 02:39:47;;;;;;;9.05;4.10;;;11.40;99.90;;;;;;5057528;28;20037;-76
2022/09/26 02:42:16;;;;;;;7.15;4.03;;;11.30;99.90;;;;;;5075393;28;20044;-72
2022/09/26 02:45:10;;;;;;;9.95;4.43;;;11.30;99.90;;;;;;5075375;28;20372;-73
2022/09/26 02:47:56;;;;;;;7.95;4.60;;;11.30;99.90;;;;;;5075282;28;20051;-71
2022/09/26 02:50:40;;;;;;;13.13;4.20;;;11.30;99.90;;;;;;5040597;28;20044;-71
2022/09/26 02:53:21;;;;;;;7.05;4.53;;;11.30;99.90;;;;;;5075294;28;20037;-72
2022/09/26 02:56:16;;;;;;;6.47;4.30;;;11.30;99.90;;;;;;5040032;28;20059;-73
2022/09/26 02:59:04;;;;;;;7.75;4.35;;;11.30;99.90;;;;;;5055207;28;20041;-72
2022/09/26 03:01:52;;;;;;;6.65;4.00;;;11.30;99.90;;;;;;5056334;28;20384;-73
2022/09/26 03:04:43;;;;;;;9.48;4.57;;;11.30;99.90;;;;;;5056168;28;20032;-71
2022/09/26 03:07:17;;;;;;;11.07;5.25;;;11.30;99.90;;;;;;5073955;28;20036;-72
2022/09/26 03:09:44;;;;;;;5.20;4.05;;;11.20;99.90;;;;;;5074091;28;20151;-71
2022/09/26 03:12:11;;;;;;;7.00;3.42;;;11.30;99.90;;;;;;5055589;28;20579;-73
2022/09/26 03:14:39;;;;;;;7.78;4.25;;;11.30;99.90;;;;;;5055941;28;20083;-72
2022/09/26 03:17:06;;;;;;;8.18;4.65;;;11.20;99.90;;;;;;5073825;28;20029;-73
2022/09/26 03:19:45;;;;;;;7.63;4.65;;;11.30;99.90;;;;;;5055739;28;20441;-70
2022/09/26 03:22:15;;;;;;;8.18;4.13;;;11.30;99.90;;;;;;5073642;28;20559;-69
2022/09/26 03:24:42;;;;;;;10.00;5.00;;;11.20;99.90;;;;;;5039016;28;20045;-70
2022/09/26 03:27:11;;;;;;;9.50;4.97;;;11.30;99.90;;;;;;5039077;28;20044;-69
2022/09/26 03:29:37;;;;;;;12.70;5.10;;;11.20;99.90;;;;;;5071228;28;20040;-71
2022/09/26 03:32:04;;;;;;;12.23;4.55;;;11.20;99.90;;;;;;5055421;28;20040;-70
2022/09/26 03:34:30;;;;;;;8.68;5.07;;;11.20;99.90;;;;;;5054911;28;20130;-69
2022/09/26 03:36:56;;;;;;;7.72;4.60;;;11.20;99.90;;;;;;5073309;28;20087;-69
2022/09/26 03:39:22;;;;;;;10.63;4.68;;;11.20;99.90;;;;;;5055787;28;20051;-69
2022/09/26 03:41:48;;;;;;;7.85;4.25;;;11.20;99.90;;;;;;5055586;28;20377;-68
2022/09/26 03:44:14;;;;;;;7.57;5.00;;;11.20;99.90;;;;;;5073207;28;20102;-68
2022/09/26 03:46:41;;;;;;;5.95;4.32;;;11.20;99.90;;;;;;5055237;28;20040;-70
2022/09/26 03:49:09;;;;;;;7.70;3.88;;;11.20;99.90;;;;;;5038597;28;20131;-69
2022/09/26 03:51:35;;;;;;;5.22;3.80;;;11.20;99.90;;;;;;5073215;28;20055;-69
2022/09/26 03:54:01;;;;;;;9.07;3.92;;;11.20;99.90;;;;;;5055165;28;20041;-67
2022/09/26 03:56:27;;;;;;;7.75;4.43;;;11.20;99.90;;;;;;5073056;28;20399;-69
2022/09/26 03:58:53;;;;;;;7.90;3.72;;;11.20;99.90;;;;;;5052647;28;20143;-68
2022/09/26 04:01:21;;;;;;;8.68;4.18;;;11.20;99.90;;;;;;5054782;28;20051;-69
2022/09/26 04:03:48;;;;;;;6.70;4.22;;;11.20;99.90;;;;;;5038326;28;20101;-67
2022/09/26 04:06:18;;;;;;;5.90;3.90;;;11.10;99.90;;;;;;5071527;28;20040;-69
2022/09/26 04:08:46;;;;;;;6.18;4.03;;;11.20;99.90;;;;;;5054735;28;20040;-69
2022/09/26 04:11:14;;;;;;;9.07;4.38;;;11.10;99.90;;;;;;5054776;28;20275;-69
2022/09/26 04:13:40;;;;;;;7.22;4.90;;;11.20;99.90;;;;;;5054492;28;20128;-69
2022/09/26 04:16:08;;;;;;;7.72;4.85;;;11.20;99.90;;;;;;5072549;28;20565;-70
2022/09/26 04:18:35;;;;;;;6.95;4.40;;;11.20;99.90;;;;;;5054673;28;20076;-72
2022/09/26 04:21:05;;;;;;;6.40;4.40;;;11.20;99.90;;;;;;5038065;28;20480;-71
2022/09/26 04:23:32;;;;;;;27.27;2.78;;;11.20;99.90;;;;;;5072633;28;20044;-69
2022/09/26 04:26:09;;;;;;;6.10;4.13;;;11.20;99.90;;;;;;5054751;28;20407;-68
2022/09/26 04:28:35;;;;;;;9.40;4.97;;;11.20;99.90;;;;;;5053721;28;20614;-69
2022/09/26 04:31:03;;;;;;;6.75;4.68;;;11.20;99.90;;;;;;5070923;28;20119;-71
2022/09/26 04:33:31;;;;;;;9.27;6.10;;;11.20;99.90;;;;;;5037714;28;20523;-69
2022/09/26 04:36:01;;;;;;;6.65;4.88;;;11.20;99.90;;;;;;5054293;28;20051;-68
2022/09/26 04:38:33;;;;;;;8.20;4.82;;;11.20;99.90;;;;;;5054302;28;20119;-68
2022/09/26 04:41:10;;;;;;;6.85;4.95;;;11.20;99.90;;;;;;5054278;28;20494;-68
2022/09/26 04:43:36;;;;;;;10.40;5.07;;;11.10;99.90;;;;;;5072314;28;20036;-69
2022/09/26 04:46:07;;;;;;;6.80;4.70;;;11.10;99.90;;;;;;5072221;28;20036;-68
2022/09/26 04:48:35;;;;;;;7.07;4.45;;;11.10;99.90;;;;;;5072070;28;20444;-67
2022/09/26 04:51:09;;;;;;;9.18;5.00;;;11.10;99.90;;;;;;5072126;28;20044;-68
2022/09/26 04:53:34;;;;;;;11.27;5.78;;;11.10;99.90;;;;;;5071867;28;20041;-67
2022/09/26 04:56:01;;;;;;;9.02;5.72;;;11.10;99.90;;;;;;5053942;28;20068;-70
2022/09/26 04:58:28;;;;;;;11.75;5.45;;;11.10;99.90;;;;;;5054144;28;20090;-69
2022/09/26 05:00:54;;;;;;;9.85;6.78;;;11.10;99.90;;;;;;5051742;28;20041;-67
2022/09/26 05:03:20;;;;;;;8.68;5.63;;;11.10;99.90;;;;;;5071813;28;20115;-69
2022/09/26 05:05:46;;;;;;;11.35;4.93;;;11.10;99.90;;;;;;5053884;28;20044;-67
2022/09/26 05:08:13;;;;;;;9.45;5.07;;;11.00;99.90;;;;;;5053904;28;20048;-69
2022/09/26 05:10:40;;;;;;;10.43;5.63;;;11.00;99.90;;;;;;5071698;28;20055;-69
2022/09/26 05:13:06;;;;;;;11.93;5.75;;;11.00;99.90;;;;;;5053826;28;20044;-70
2022/09/26 05:15:41;;;;;;;10.20;5.82;;;11.00;99.90;;;;;;5071698;28;20488;-69
2022/09/26 05:18:08;;;;;;;8.20;5.13;;;11.00;99.90;;;;;;5053751;28;20045;-67
2022/09/26 05:20:34;;;;;;;9.68;5.30;;;11.00;99.90;;;;;;5071134;28;20101;-68
2022/09/26 05:23:01;;;;;;;9.93;4.47;;;11.00;99.90;;;;;;5054026;28;20048;-70
2022/09/26 05:28:15;;;;;;;9.93;5.78;;;10.90;99.90;;;;;;5071523;28;20079;-69
2022/09/26 05:30:42;;;;;;;8.15;4.78;;;10.90;99.90;;;;;;5051155;28;20071;-68
2022/09/26 05:33:08;;;;;;;7.93;4.60;;;10.90;99.90;;;;;;5053587;28;20127;-67
2022/09/26 05:35:34;;;;;;;9.93;4.63;;;10.90;99.90;;;;;;5053578;28;20045;-67
2022/09/26 05:38:01;;;;;;;9.88;5.05;;;10.90;99.90;;;;;;5036915;28;20044;-67
2022/09/26 05:43:11;;;;;;;8.73;4.60;;;10.90;99.90;;;;;;5071459;28;20048;-67
2022/09/26 05:45:37;;;;;;;10.10;4.13;;;10.80;99.90;;;;;;5071394;28;20124;-67
2022/09/26 05:48:05;;;;;;;7.70;4.70;;;10.80;99.90;;;;;;5053448;28;20040;-66
2022/09/26 05:50:32;;;;;;;6.97;4.35;;;10.80;99.90;;;;;;5071493;28;20064;-66
2022/09/26 05:53:01;;;;;;;6.40;4.22;;;10.80;99.90;;;;;;5036817;28;20052;-66
2022/09/26 05:55:29;;;;;;;7.97;4.63;;;10.80;99.90;;;;;;5071464;28;20396;-66
2022/09/26 05:57:59;;;;;;;6.68;4.55;;;10.80;99.90;;;;;;5071346;28;20271;-66
2022/09/26 06:00:26;;;;;;;8.10;4.13;;;10.80;99.90;;;;;;5069307;28;20114;-66
2022/09/26 06:02:55;;;;;;;8.82;4.35;;;10.70;99.90;;;;;;5071458;28;20063;-67
2022/09/26 06:05:23;;;;;;;7.00;4.00;;;10.70;99.90;;;;;;5053485;28;20036;-66
2022/09/26 06:07:49;;;;;;;6.15;4.45;;;10.70;99.90;;;;;;5053264;28;20512;-67
2022/09/26 06:10:15;;;;;;;7.53;4.50;;;10.70;99.90;;;;;;5053213;28;20041;-66
2022/09/26 06:12:41;;;;;;;6.32;4.05;;;10.70;99.90;;;;;;5052975;28;20055;-66
2022/09/26 06:15:10;;;;;;;9.70;4.63;;;10.70;99.90;;;;;;5053515;28;20083;-66
2022/09/26 06:17:36;;;;;;;7.50;4.07;;;10.70;99.90;;;;;;5071318;28;20123;-68
2022/09/26 06:20:03;;;;;;;6.22;3.67;;;10.70;99.90;;;;;;5070089;28;20033;-67
2022/09/26 06:22:38;;;;;;;8.88;3.90;;;10.70;99.90;;;;;;5053318;28;20044;-67
2022/09/26 06:25:04;;;;;;;5.78;3.35;;;10.70;99.90;;;;;;5036455;28;20087;-66
2022/09/26 06:27:33;;;;;;;8.07;4.22;;;10.70;99.90;;;;;;5053330;28;20044;-67
2022/09/26 06:29:59;;;;;;;8.90;3.40;;;10.70;99.90;;;;;;5068799;28;20045;-65
2022/09/26 06:32:25;;;;;;;6.63;4.07;;;10.70;99.90;;;;;;5073875;28;20044;-66
2022/09/26 06:34:51;;;;;;;9.75;4.65;;;10.70;99.90;;;;;;5056614;28;20036;-66
2022/09/26 06:37:17;;;;;;;8.13;3.75;;;10.70;99.90;;;;;;5056866;28;20040;-66
2022/09/26 06:39:42;;;;;;;7.93;4.43;;;10.70;99.90;;;;;;5056457;28;20416;-66
2022/09/26 06:42:08;;;;;;;9.85;4.28;;;10.70;99.90;;;;;;5056459;28;20051;-68
2022/09/26 06:44:34;;;;;;;10.40;4.38;;;10.70;99.90;;;;;;5074536;28;20044;-67
2022/09/26 06:47:00;;;;;;;7.28;3.97;;;10.60;99.90;;;;;;5056474;28;20496;-66
2022/09/26 06:49:27;;;;;;;6.32;3.92;;;10.60;99.90;;;;;;5056605;28;20053;-68
2022/09/26 06:51:53;;;;;;;6.70;4.07;;;10.60;99.90;;;;;;5056287;28;20048;-68
2022/09/26 06:54:19;;;;;;;8.98;4.03;;;10.60;99.90;;;;;;5074193;28;20036;-66
2022/09/26 06:56:45;;;;;;;7.53;3.50;;;10.60;99.90;;;;;;5074212;28;20041;-69
2022/09/26 06:59:11;;;;;;;7.72;3.40;;;10.60;99.90;;;;;;5054209;28;20070;-68
2022/09/26 07:01:37;;;;;;;7.53;3.70;;;10.60;99.90;;;;;;5039545;28;20049;-68
2022/09/26 07:04:03;;;;;;;6.18;3.40;;;10.60;99.90;;;;;;5039655;28;20047;-66
2022/09/26 07:06:29;;;;;;;6.50;3.65;;;10.70;99.90;;;;;;5056220;28;20040;-67
2022/09/26 07:08:55;;;;;;;6.15;3.03;;;10.70;99.90;;;;;;5056931;28;20119;-67
2022/09/26 07:11:21;;;;;;;4.13;3.10;;;10.70;99.90;;;;;;5075153;28;20045;-66
2022/09/26 07:13:47;;;;;;;7.85;3.47;;;10.70;99.90;;;;;;5074762;28;20514;-66
2022/09/26 07:16:13;;;;;;;9.90;3.65;;;10.80;99.90;;;;;;5040460;28;20392;-67
2022/09/26 07:18:39;;;;;;;7.45;3.17;;;10.70;99.90;;;;;;5074721;28;20056;-67
2022/09/26 07:21:05;;;;;;;4.50;3.38;;;10.80;99.90;;;;;;5074869;28;20047;-67
2022/09/26 07:23:32;;;;;;;6.95;3.42;;;10.80;99.90;;;;;;5074766;28;20041;-66
2022/09/26 07:25:58;;;;;;;4.72;3.00;;;10.80;99.90;;;;;;5056963;28;20048;-66
2022/09/26 07:28:25;;;;;;;7.80;3.10;;;10.90;99.90;;;;;;5074920;28;20051;-69
2022/09/26 07:30:55;;;;;;;7.47;3.05;;;11.00;99.90;;;;;;5072359;28;20045;-67
2022/09/26 07:33:21;;;;;;;3.65;2.83;;;11.10;99.90;;;;;;5056481;28;20127;-66
2022/09/26 07:35:48;;;;;;;3.67;1.98;;;11.20;99.90;;;;;;5056501;28;20649;-66
2022/09/26 07:38:14;;;;;;;3.38;2.45;;;11.30;99.90;;;;;;5056431;28;20469;-67
2022/09/26 07:40:42;;;;;;;7.05;3.58;;;11.30;99.90;;;;;;5056306;28;20041;-66
2022/09/26 07:43:09;;;;;;;5.80;2.38;;;11.40;99.90;;;;;;5074113;28;20078;-68
2022/09/26 07:51:05;;;;;;;5.50;2.60;;;11.50;99.90;;;;;;5074385;28;20044;-67
2022/09/26 07:53:31;;;;;;;6.22;2.40;;;11.50;99.90;;;;;;5055915;28;20040;-67
2022/09/26 07:56:09;;;;;;;9.40;2.45;;;11.50;99.90;;;;;;5056225;28;20102;-66
2022/09/26 07:58:40;;;;;;;4.82;2.42;;;11.50;99.90;;;;;;5056179;28;20372;-67
2022/09/26 08:01:10;;;;;;;7.40;2.42;;;11.50;99.90;;;;;;5054611;28;20043;-67
2022/09/26 08:03:38;;;;;;;4.10;1.90;;;11.50;99.90;;;;;;5074198;28;20040;-66
2022/09/26 08:06:04;;;;;;;5.22;2.40;;;11.50;99.90;;;;;;5074098;28;20396;-66
2022/09/26 08:08:30;;;;;;;6.25;2.60;;;11.50;99.90;;;;;;5073723;28;20048;-66
2022/09/26 08:10:57;;;;;;;5.30;2.63;;;11.50;99.90;;;;;;5055841;28;20121;-66
2022/09/26 08:13:25;;;;;;;5.82;2.55;;;11.50;99.90;;;;;;5038764;28;20086;-66
2022/09/26 08:15:52;;;;;;;6.35;2.70;;;11.50;99.90;;;;;;5055692;28;20041;-67
2022/09/26 08:18:18;;;;;;;6.55;2.88;;;11.50;99.90;;;;;;5073598;28;20032;-66
2022/09/26 08:20:46;;;;;;;4.15;2.80;;;11.50;99.90;;;;;;5055583;28;20040;-66
2022/09/26 08:23:14;;;;;;;5.07;2.90;;;11.40;99.90;;;;;;5055968;28;20377;-68
2022/09/26 08:25:40;;;;;;;6.90;2.72;;;11.40;99.90;;;;;;5073497;28;20102;-68
2022/09/26 08:28:06;;;;;;;4.93;2.65;;;11.50;99.90;;;;;;5073445;28;20036;-68
2022/09/26 08:30:33;;;;;;;4.75;2.50;;;11.50;99.90;;;;;;5071147;28;20041;-65
2022/09/26 08:33:00;;;;;;;9.27;3.03;;;11.50;99.90;;;;;;5073222;28;20492;-66
2022/09/26 08:35:35;;;;;;;12.13;4.10;;;11.50;99.90;;;;;;5055411;28;20047;-66
2022/09/26 08:38:02;;;;;;;6.90;3.08;;;11.60;99.90;;;;;;5055625;28;20041;-67
2022/09/26 08:40:39;;;;;;;4.50;2.63;;;11.60;99.90;;;;;;5072942;28;20369;-66
2022/09/26 08:43:46;;;;;;;7.88;2.70;;;11.70;99.90;;;;;;5073106;28;20133;-66
2022/09/26 08:46:31;;;;;;;4.47;2.85;;;11.80;99.90;;;;;;5050663;28;20592;-67
2022/09/26 08:49:16;;;;;;;6.20;2.80;;;11.90;99.90;;;;;;5054421;28;20080;-67
2022/09/26 08:51:49;;;;;;;3.88;2.75;;;12.00;99.90;;;;;;5054789;28;20048;-67
2022/09/26 08:54:23;;;;;;;6.32;2.65;;;12.10;99.90;;;;;;5054690;28;20089;-68
2022/09/26 08:56:57;;;;;;;5.15;2.40;;;12.10;99.90;;;;;;5073003;28;20040;-68
2022/09/26 08:59:42;;;;;;;6.07;2.65;;;12.20;99.90;;;;;;5070636;28;20443;-68
2022/09/26 09:02:30;;;;;;;6.97;3.25;;;12.10;99.90;;;;;;5054453;28;20046;-67
2022/09/26 09:05:19;;;;;;;6.15;2.50;;;12.20;99.90;;;;;;5038235;28;20063;-70
2022/09/26 09:07:52;;;;;;;3.60;2.40;;;12.20;99.90;;;;;;5054672;28;20046;-69
2022/09/26 09:10:38;;;;;;;9.43;3.03;;;12.20;99.90;;;;;;5072972;28;20106;-68
2022/09/26 09:13:11;;;;;;;7.03;2.85;;;12.20;99.90;;;;;;5054688;28;20052;-67
2022/09/26 09:16:15;;;;;;;7.05;2.55;;;12.20;99.90;;;;;;5038523;28;20041;-66
2022/09/26 09:18:53;;;;;;;3.67;2.63;;;12.20;99.90;;;;;;5054906;28;20040;-68
2022/09/26 09:21:45;;;;;;;6.72;2.92;;;12.10;99.90;;;;;;5054962;28;20036;-68
2022/09/26 09:24:26;;;;;;;7.10;2.78;;;12.20;99.90;;;;;;5072672;28;20063;-67
2022/09/26 09:27:13;;;;;;;4.78;3.17;;;12.20;99.90;;;;;;5051912;28;20045;-68
2022/09/26 09:29:48;;;;;;;4.07;3.15;;;12.20;99.90;;;;;;5069807;28;20063;-69
2022/09/26 09:32:19;;;;;;;5.57;3.20;;;12.20;99.90;;;;;;5054496;28;20044;-69
2022/09/26 09:34:48;;;;;;;6.57;3.13;;;12.20;99.90;;;;;;5054279;28;20067;-68
2022/09/26 09:37:20;;;;;;;6.38;3.00;;;12.20;99.90;;;;;;5054423;28;20037;-67
2022/09/26 09:39:48;;;;;;;9.13;3.53;;;12.10;99.90;;;;;;5072500;28;20115;-67
2022/09/26 09:42:30;;;;;;;11.75;5.25;;;12.00;99.90;;;;;;5040282;28;20044;-66
2022/09/26 09:45:22;;;;;;;8.60;4.20;;;11.90;99.90;;;;;;5054679;28;20449;-67
2022/09/26 09:48:01;;;;;;;7.18;4.55;;;11.80;99.90;;;;;;5071864;28;20072;-66
2022/09/26 09:50:55;;;;;;;8.25;4.65;;;11.70;99.90;;;;;;5051484;28;20082;-67
2022/09/26 09:53:33;;;;;;;9.73;4.88;;;11.60;99.90;;;;;;5072211;28;20056;-66
2022/09/26 09:56:02;;;;;;;7.00;4.65;;;11.60;99.90;;;;;;5053917;28;20044;-66
2022/09/26 09:58:55;;;;;;;10.55;4.43;;;11.50;99.90;;;;;;5054572;28;20040;-67
2022/09/26 10:01:41;;;;;;;8.93;4.07;;;11.50;99.90;;;;;;5054304;28;20146;-67
2022/09/26 10:04:07;;;;;;;10.82;4.50;;;11.50;99.90;;;;;;5072258;28;20051;-66
2022/09/26 10:06:33;;;;;;;8.13;4.68;;;11.50;99.90;;;;;;5057417;28;20489;-66
2022/09/26 10:09:10;;;;;;;9.82;4.60;;;11.50;99.90;;;;;;5075961;28;20041;-67
2022/09/26 10:11:41;;;;;;;10.70;5.10;;;11.50;99.90;;;;;;5057990;28;20048;-67
2022/09/26 10:14:14;;;;;;;7.10;4.72;;;11.50;99.90;;;;;;5074794;28;20063;-67
2022/09/26 10:17:07;;;;;;;10.60;5.00;;;11.60;99.90;;;;;;5075958;28;20053;-66
2022/09/26 10:19:36;;;;;;;10.07;5.57;;;11.60;99.90;;;;;;5058242;28;20071;-66
2022/09/26 10:22:08;;;;;;;9.65;4.50;;;11.60;99.90;;;;;;5058233;28;20400;-67
2022/09/26 10:24:40;;;;;;;9.30;5.00;;;11.60;99.90;;;;;;5057849;28;20541;-67
2022/09/26 10:27:22;;;;;;;7.10;5.47;;;11.60;99.90;;;;;;5057770;28;20040;-67
2022/09/26 10:29:59;;;;;;;10.13;5.57;;;11.70;99.90;;;;;;5055605;28;20465;-67
2022/09/26 10:32:26;;;;;;;6.55;5.28;;;11.60;99.90;;;;;;5057794;28;20055;-66
2022/09/26 10:35:17;;;;;;;9.95;5.72;;;11.60;99.90;;;;;;5075625;28;20109;-67
2022/09/26 10:37:48;;;;;;;8.68;5.18;;;11.60;99.90;;;;;;5057502;28;20056;-66
2022/09/26 10:40:44;;;;;;;10.35;5.93;;;11.60;99.90;;;;;;5057854;28;20508;-67
2022/09/26 10:43:27;;;;;;;8.20;5.80;;;11.60;99.90;;;;;;5057797;28;20050;-67
2022/09/26 10:46:02;;;;;;;9.73;6.07;;;11.60;99.90;;;;;;5075327;28;20047;-66
2022/09/26 10:48:52;;;;;;;10.63;6.50;;;11.70;99.90;;;;;;5075634;28;20070;-66
2022/09/26 10:51:36;;;;;;;9.48;4.65;;;11.70;99.90;;;;;;5057413;28;20094;-67
2022/09/26 10:54:15;;;;;;;9.52;6.05;;;11.70;99.90;;;;;;5057502;28;20096;-67
2022/09/26 10:56:53;;;;;;;8.80;6.07;;;11.80;99.90;;;;;;5040671;28;20036;-67
2022/09/26 10:59:25;;;;;;;8.30;5.80;;;11.80;99.90;;;;;;5055383;28;20427;-67
2022/09/26 11:01:57;;;;;;;7.68;5.88;;;11.80;99.90;;;;;;5074949;28;20055;-68
2022/09/26 11:07:28;;;;;;;9.30;5.53;;;11.80;99.90;;;;;;5057323;28;20513;-68
2022/09/26 11:10:01;;;;;;;9.65;6.35;;;11.90;99.90;;;;;;5075155;28;20076;-68
2022/09/26 11:12:29;;;;;;;11.15;6.97;;;11.90;99.90;;;;;;5056877;28;20480;-67
2022/09/26 11:14:59;;;;;;;7.75;5.82;;;11.90;99.90;;;;;;5056856;28;20041;-69
2022/09/26 11:17:57;;;;;;;9.60;5.97;;;11.90;99.90;;;;;;5056139;28;20492;-68
2022/09/26 11:20:31;;;;;;;8.35;6.05;;;11.90;99.90;;;;;;5019681;28;20376;-66
2022/09/26 11:23:12;;;;;;;8.70;6.32;;;11.90;99.90;;;;;;5056661;28;20040;-66
2022/09/26 11:25:54;;;;;;;9.68;6.82;;;11.90;99.90;;;;;;5074743;28;20082;-67
2022/09/26 11:28:33;;;;;;;8.20;6.50;;;12.00;99.90;;;;;;5074643;28;20198;-66
2022/09/26 11:31:08;;;;;;;10.00;7.18;;;12.00;99.90;;;;;;5072332;28;20040;-66
2022/09/26 11:33:34;;;;;;;9.88;6.18;;;12.00;99.90;;;;;;5056539;28;20041;-66
2022/09/26 11:36:38;;;;;;;12.55;7.78;;;12.00;99.90;;;;;;5074416;28;20037;-66
2022/09/26 11:39:41;;;;;;;11.27;8.38;;;12.00;99.90;;;;;;4957294;28;20050;-66
2022/09/26 11:42:27;;;;;;;9.02;6.57;;;12.00;99.90;;;;;;5074317;28;20052;-66
2022/09/26 11:45:02;;;;;;;8.50;6.50;;;12.00;99.90;;;;;;5055671;28;20131;-67
2022/09/26 11:47:37;;;;;;;8.45;6.07;;;12.00;99.90;;;;;;5074291;28;20040;-65
2022/09/26 11:50:34;;;;;;;6.85;6.15;;;12.00;99.90;;;;;;5056324;28;20091;-66
2022/09/26 11:53:17;;;;;;;10.65;7.18;;;12.00;99.90;;;;;;5055871;28;20472;-66
2022/09/26 11:56:14;;;;;;;9.85;7.28;;;12.00;99.90;;;;;;5056276;28;20047;-66
2022/09/26 11:59:01;;;;;;;12.05;6.68;;;12.00;99.90;;;;;;5073995;28;20044;-66
2022/09/26 12:01:53;;;;;;;9.30;6.75;;;12.00;99.90;;;;;;5074196;28;20452;-66
2022/09/26 12:04:50;;;;;;;7.03;6.15;;;12.00;99.90;;;;;;5073932;28;20500;-65
2022/09/26 12:07:43;;;;;;;8.93;5.60;;;12.10;99.90;;;;;;4998835;28;20072;-66
2022/09/26 12:10:35;;;;;;;6.60;5.28;;;12.10;99.90;;;;;;5069053;28;20045;-67
2022/09/26 12:13:39;;;;;;;8.57;5.18;;;12.10;99.90;;;;;;5036541;28;20067;-66
2022/09/26 12:16:08;;;;;;;6.70;5.45;;;12.10;99.90;;;;;;5073763;28;20040;-65
2022/09/26 12:18:42;;;;;;;6.13;4.60;;;12.10;99.90;;;;;;5073625;28;20076;-67
2022/09/26 12:21:35;;;;;;;8.48;5.43;;;12.20;99.90;;;;;;5055489;28;20528;-67
2022/09/26 12:24:10;;;;;;;6.22;4.68;;;12.20;99.90;;;;;;5039119;28;20036;-67
2022/09/26 12:26:56;;;;;;;6.15;5.00;;;12.20;99.90;;;;;;5055452;28;20047;-67
2022/09/26 12:29:33;;;;;;;5.57;4.90;;;12.20;99.90;;;;;;5052422;28;20036;-67
2022/09/26 12:32:13;;;;;;;9.00;5.68;;;12.20;99.90;;;;;;5073201;28;20137;-67
2022/09/26 12:35:06;;;;;;;6.35;5.20;;;12.20;99.90;;;;;;5055459;28;20127;-67
2022/09/26 12:38:10;;;;;;;7.35;4.28;;;12.30;99.90;;;;;;5055213;28;20055;-68
2022/09/26 12:40:42;;;;;;;5.80;4.63;;;12.30;99.90;;;;;;5041178;28;20045;-67
2022/09/26 12:43:36;;;;;;;8.07;4.30;;;12.40;99.90;;;;;;5055597;28;20435;-65
2022/09/26 12:46:20;;;;;;;4.63;4.18;;;12.60;99.90;;;;;;5055165;28;20563;-67
2022/09/26 12:48:49;;;;;;;4.63;3.15;;;12.90;99.90;;;;;;5072912;28;20392;-68
2022/09/26 12:51:57;;;;;;;4.43;3.15;;;13.20;99.90;;;;;;5055198;28;20051;-67
2022/09/26 12:54:47;;;;;;;3.97;3.22;;;13.30;99.90;;;;;;4971751;28;20428;-67
2022/09/26 12:57:16;;;;;;;4.25;3.00;;;13.30;99.90;;;;;;5068701;28;20048;-67
2022/09/26 13:00:01;;;;;;;3.88;3.03;;;13.30;99.90;;;;;;5052852;28;20056;-66
2022/09/26 13:03:20;;;;;;;5.55;3.17;;;13.30;99.90;;;;;;5055067;28;20097;-67
2022/09/26 13:06:23;;;;;;;5.00;3.83;;;13.30;99.90;;;;;;4971509;28;20046;-67
2022/09/26 13:09:06;;;;;;;5.13;3.03;;;13.30;99.90;;;;;;4937909;28;20055;-67
2022/09/26 13:12:06;;;;;;;5.20;3.33;;;13.30;99.90;;;;;;5041333;28;20110;-68
2022/09/26 13:14:59;;;;;;;4.57;3.30;;;13.30;99.90;;;;;;5072453;28;20064;-68
2022/09/26 13:17:40;;;;;;;4.20;2.85;;;13.40;99.90;;;;;;5072621;28;20484;-67
2022/09/26 13:20:13;;;;;;;4.68;2.88;;;13.40;99.90;;;;;;5072628;28;20047;-67
2022/09/26 13:22:49;;;;;;;5.82;3.33;;;13.50;99.90;;;;;;5038007;28;20059;-66
2022/09/26 13:25:30;;;;;;;5.68;3.10;;;13.50;99.90;;;;;;5072851;28;20063;-67
2022/09/26 13:28:15;;;;;;;4.72;3.35;;;13.60;99.90;;;;;;5054897;28;20044;-68
2022/09/26 13:30:52;;;;;;;3.75;2.75;;;13.70;99.90;;;;;;5052363;28;20545;-69
2022/09/26 13:33:35;;;;;;;4.53;2.92;;;13.70;99.90;;;;;;5072429;28;20492;-68
2022/09/26 13:36:03;;;;;;;3.25;2.85;;;13.70;99.90;;;;;;5054325;28;20052;-67